sensor_id;sensor_type;location;lat;lon;timestamp;P1;durP1;ratioP1;P2;durP2;ratioP2
2362;SDS011;64265;51.664;7.626;2024-02-04T00:01:21;10.33;;;2.47;;
2362;SDS011;64265;51.664;7.626;2024-02-04T00:03:48;4.43;;;2.60;;
2362;SDS011;64265;51.664;7.626;2024-02-04T00:06:15;3.13;;;2.07;;
2362;SDS011;64265;51.664;7.626;2024-02-04T00:08:42;2.70;;;2.00;;
2362;SDS011;64265;51.664;7.626;2024-02-04T00:11:08;4.50;;;2.40;;
2362;SDS011;64265;51.664;7.626;2024-02-04T00:13:37;2.73;;;2.37;;
2362;SDS011;64265;51.664;7.626;2024-02-04T00:16:05;2.60;;;1.90;;
2362;SDS011;64265;51.664;7.626;2024-02-04T00:18:32;3.27;;;2.13;;
2362;SDS011;64265;51.664;7.626;2024-02-04T00:20:59;3.10;;;2.67;;
2362;SDS011;64265;51.664;7.626;2024-02-04T00:23:25;3.60;;;2.17;;
2362;SDS011;64265;51.664;7.626;2024-02-04T00:25:52;5.17;;;2.70;;
2362;SDS011;64265;51.664;7.626;2024-02-04T00:28:19;2.20;;;1.83;;
2362;SDS011;64265;51.664;7.626;2024-02-04T00:30:46;4.10;;;2.93;;
2362;SDS011;64265;51.664;7.626;2024-02-04T00:33:16;5.30;;;2.40;;
2362;SDS011;64265;51.664;7.626;2024-02-04T00:35:42;3.07;;;1.80;;
2362;SDS011;64265;51.664;7.626;2024-02-04T00:38:09;4.10;;;2.23;;
2362;SDS011;64265;51.664;7.626;2024-02-04T00:40:36;4.03;;;2.37;;
2362;SDS011;64265;51.664;7.626;2024-02-04T00:43:03;2.80;;;1.70;;
2362;SDS011;64265;51.664;7.626;2024-02-04T00:45:30;2.77;;;1.90;;
2362;SDS011;64265;51.664;7.626;2024-02-04T00:47:57;3.50;;;2.23;;
2362;SDS011;64265;51.664;7.626;2024-02-04T00:50:25;2.10;;;1.80;;
2362;SDS011;64265;51.664;7.626;2024-02-04T00:52:52;2.43;;;1.90;;
2362;SDS011;64265;51.664;7.626;2024-02-04T00:55:18;3.80;;;2.30;;
2362;SDS011;64265;51.664;7.626;2024-02-04T00:57:45;5.67;;;2.37;;
2362;SDS011;64265;51.664;7.626;2024-02-04T01:00:12;3.77;;;3.13;;
2362;SDS011;64265;51.664;7.626;2024-02-04T01:02:39;2.20;;;2.00;;
2362;SDS011;64265;51.664;7.626;2024-02-04T01:05:06;2.70;;;1.53;;
2362;SDS011;64265;51.664;7.626;2024-02-04T01:07:35;3.00;;;2.67;;
2362;SDS011;64265;51.664;7.626;2024-02-04T01:10:01;3.37;;;2.40;;
2362;SDS011;64265;51.664;7.626;2024-02-04T01:12:28;3.07;;;2.10;;
2362;SDS011;64265;51.664;7.626;2024-02-04T01:14:55;3.13;;;1.83;;
2362;SDS011;64265;51.664;7.626;2024-02-04T01:17:22;2.80;;;2.10;;
2362;SDS011;64265;51.664;7.626;2024-02-04T01:19:48;3.45;;;2.20;;
2362;SDS011;64265;51.664;7.626;2024-02-04T01:22:15;2.33;;;1.93;;
2362;SDS011;64265;51.664;7.626;2024-02-04T01:24:43;2.80;;;2.23;;
2362;SDS011;64265;51.664;7.626;2024-02-04T01:27:13;2.53;;;1.90;;
2362;SDS011;64265;51.664;7.626;2024-02-04T01:29:40;2.13;;;1.97;;
2362;SDS011;64265;51.664;7.626;2024-02-04T01:32:06;2.70;;;2.37;;
2362;SDS011;64265;51.664;7.626;2024-02-04T01:34:33;3.50;;;2.50;;
2362;SDS011;64265;51.664;7.626;2024-02-04T01:37:00;2.33;;;2.00;;
2362;SDS011;64265;51.664;7.626;2024-02-04T01:39:27;2.13;;;1.87;;
2362;SDS011;64265;51.664;7.626;2024-02-04T01:41:55;2.30;;;2.10;;
2362;SDS011;64265;51.664;7.626;2024-02-04T01:44:21;2.80;;;2.00;;
2362;SDS011;64265;51.664;7.626;2024-02-04T01:46:48;3.57;;;2.50;;
2362;SDS011;64265;51.664;7.626;2024-02-04T01:49:18;2.50;;;1.93;;
2362;SDS011;64265;51.664;7.626;2024-02-04T01:51:45;3.55;;;2.50;;
2362;SDS011;64265;51.664;7.626;2024-02-04T01:54:12;2.60;;;2.00;;
2362;SDS011;64265;51.664;7.626;2024-02-04T01:56:38;4.97;;;2.00;;
2362;SDS011;64265;51.664;7.626;2024-02-04T01:59:07;3.50;;;2.80;;
2362;SDS011;64265;51.664;7.626;2024-02-04T02:01:34;2.77;;;1.70;;
2362;SDS011;64265;51.664;7.626;2024-02-04T02:04:01;3.27;;;2.60;;
2362;SDS011;64265;51.664;7.626;2024-02-04T02:06:28;2.67;;;2.17;;
2362;SDS011;64265;51.664;7.626;2024-02-04T02:08:55;4.20;;;3.80;;
2362;SDS011;64265;51.664;7.626;2024-02-04T02:11:25;1.83;;;1.73;;
2362;SDS011;64265;51.664;7.626;2024-02-04T02:14:02;3.20;;;2.03;;
2362;SDS011;64265;51.664;7.626;2024-02-04T02:16:33;2.37;;;2.17;;
2362;SDS011;64265;51.664;7.626;2024-02-04T02:19:02;2.35;;;2.15;;
2362;SDS011;64265;51.664;7.626;2024-02-04T02:21:40;2.47;;;2.00;;
2362;SDS011;64265;51.664;7.626;2024-02-04T02:24:14;3.17;;;2.20;;
2362;SDS011;64265;51.664;7.626;2024-02-04T02:26:44;4.80;;;2.10;;
2362;SDS011;64265;51.664;7.626;2024-02-04T02:29:12;2.30;;;2.10;;
2362;SDS011;64265;51.664;7.626;2024-02-04T02:31:38;2.40;;;2.20;;
2362;SDS011;64265;51.664;7.626;2024-02-04T02:34:09;2.13;;;1.93;;
2362;SDS011;64265;51.664;7.626;2024-02-04T02:36:37;2.40;;;2.20;;
2362;SDS011;64265;51.664;7.626;2024-02-04T02:39:11;2.43;;;1.93;;
2362;SDS011;64265;51.664;7.626;2024-02-04T02:41:42;3.63;;;2.08;;
2362;SDS011;64265;51.664;7.626;2024-02-04T02:44:11;2.30;;;1.70;;
2362;SDS011;64265;51.664;7.626;2024-02-04T02:46:39;2.85;;;2.00;;
2362;SDS011;64265;51.664;7.626;2024-02-04T02:49:07;2.45;;;2.25;;
2362;SDS011;64265;51.664;7.626;2024-02-04T02:51:34;2.40;;;1.90;;
2362;SDS011;64265;51.664;7.626;2024-02-04T02:54:00;2.20;;;1.98;;
2362;SDS011;64265;51.664;7.626;2024-02-04T02:56:27;2.25;;;1.98;;
2362;SDS011;64265;51.664;7.626;2024-02-04T02:58:54;2.85;;;2.55;;
2362;SDS011;64265;51.664;7.626;2024-02-04T03:01:22;3.03;;;1.97;;
2362;SDS011;64265;51.664;7.626;2024-02-04T03:03:49;2.60;;;1.98;;
2362;SDS011;64265;51.664;7.626;2024-02-04T03:06:16;3.75;;;1.85;;
2362;SDS011;64265;51.664;7.626;2024-02-04T03:08:42;2.37;;;2.17;;
2362;SDS011;64265;51.664;7.626;2024-02-04T03:11:09;3.00;;;2.00;;
2362;SDS011;64265;51.664;7.626;2024-02-04T03:13:37;3.42;;;2.03;;
2362;SDS011;64265;51.664;7.626;2024-02-04T03:16:04;3.95;;;2.20;;
2362;SDS011;64265;51.664;7.626;2024-02-04T03:18:38;2.97;;;1.92;;
2362;SDS011;64265;51.664;7.626;2024-02-04T03:21:11;2.92;;;1.95;;
2362;SDS011;64265;51.664;7.626;2024-02-04T03:23:38;2.33;;;1.85;;
2362;SDS011;64265;51.664;7.626;2024-02-04T03:26:05;2.28;;;2.08;;
2362;SDS011;64265;51.664;7.626;2024-02-04T03:28:32;1.95;;;1.75;;
2362;SDS011;64265;51.664;7.626;2024-02-04T03:30:59;2.17;;;1.97;;
2362;SDS011;64265;51.664;7.626;2024-02-04T03:33:26;3.20;;;2.20;;
2362;SDS011;64265;51.664;7.626;2024-02-04T03:35:54;2.75;;;2.55;;
2362;SDS011;64265;51.664;7.626;2024-02-04T03:38:21;2.97;;;1.98;;
2362;SDS011;64265;51.664;7.626;2024-02-04T03:40:47;2.30;;;2.10;;
2362;SDS011;64265;51.664;7.626;2024-02-04T03:43:15;1.65;;;1.55;;
2362;SDS011;64265;51.664;7.626;2024-02-04T03:45:41;2.23;;;2.00;;
2362;SDS011;64265;51.664;7.626;2024-02-04T03:48:08;1.77;;;1.67;;
2362;SDS011;64265;51.664;7.626;2024-02-04T03:50:35;1.95;;;1.65;;
2362;SDS011;64265;51.664;7.626;2024-02-04T03:53:04;2.65;;;2.10;;
2362;SDS011;64265;51.664;7.626;2024-02-04T03:55:30;2.55;;;1.73;;
2362;SDS011;64265;51.664;7.626;2024-02-04T03:57:57;2.05;;;1.80;;
2362;SDS011;64265;51.664;7.626;2024-02-04T04:00:24;3.35;;;1.90;;
2362;SDS011;64265;51.664;7.626;2024-02-04T04:02:51;2.40;;;2.05;;
2362;SDS011;64265;51.664;7.626;2024-02-04T04:05:18;2.63;;;1.83;;
2362;SDS011;64265;51.664;7.626;2024-02-04T04:07:44;2.25;;;1.98;;
2362;SDS011;64265;51.664;7.626;2024-02-04T04:10:12;2.65;;;2.10;;
2362;SDS011;64265;51.664;7.626;2024-02-04T04:12:39;1.92;;;1.50;;
2362;SDS011;64265;51.664;7.626;2024-02-04T04:15:06;2.88;;;2.03;;
2362;SDS011;64265;51.664;7.626;2024-02-04T04:17:33;2.50;;;2.28;;
2362;SDS011;64265;51.664;7.626;2024-02-04T04:20:00;2.10;;;1.90;;
2362;SDS011;64265;51.664;7.626;2024-02-04T04:22:27;1.83;;;1.70;;
2362;SDS011;64265;51.664;7.626;2024-02-04T04:24:53;1.95;;;1.85;;
2362;SDS011;64265;51.664;7.626;2024-02-04T04:27:22;2.17;;;1.83;;
2362;SDS011;64265;51.664;7.626;2024-02-04T04:29:48;1.85;;;1.63;;
2362;SDS011;64265;51.664;7.626;2024-02-04T04:32:15;2.53;;;2.03;;
2362;SDS011;64265;51.664;7.626;2024-02-04T04:34:42;1.95;;;1.75;;
2362;SDS011;64265;51.664;7.626;2024-02-04T04:37:09;2.20;;;2.00;;
2362;SDS011;64265;51.664;7.626;2024-02-04T04:39:35;2.38;;;2.17;;
2362;SDS011;64265;51.664;7.626;2024-02-04T04:42:02;2.10;;;1.85;;
2362;SDS011;64265;51.664;7.626;2024-02-04T04:44:31;2.63;;;1.67;;
2362;SDS011;64265;51.664;7.626;2024-02-04T04:46:57;2.35;;;2.15;;
2362;SDS011;64265;51.664;7.626;2024-02-04T04:49:24;1.90;;;1.70;;
2362;SDS011;64265;51.664;7.626;2024-02-04T04:51:51;1.75;;;1.63;;
2362;SDS011;64265;51.664;7.626;2024-02-04T04:54:18;2.55;;;1.85;;
2362;SDS011;64265;51.664;7.626;2024-02-04T04:56:44;2.22;;;1.73;;
2362;SDS011;64265;51.664;7.626;2024-02-04T04:59:12;2.58;;;2.00;;
2362;SDS011;64265;51.664;7.626;2024-02-04T05:01:45;2.30;;;1.95;;
2362;SDS011;64265;51.664;7.626;2024-02-04T05:04:12;1.45;;;1.35;;
2362;SDS011;64265;51.664;7.626;2024-02-04T05:06:39;2.08;;;1.88;;
2362;SDS011;64265;51.664;7.626;2024-02-04T05:09:06;2.97;;;2.15;;
2362;SDS011;64265;51.664;7.626;2024-02-04T05:11:33;1.90;;;1.50;;
2362;SDS011;64265;51.664;7.626;2024-02-04T05:14:00;2.05;;;1.85;;
2362;SDS011;64265;51.664;7.626;2024-02-04T05:16:27;1.85;;;1.75;;
2362;SDS011;64265;51.664;7.626;2024-02-04T05:18:55;1.90;;;1.77;;
2362;SDS011;64265;51.664;7.626;2024-02-04T05:21:22;1.98;;;1.83;;
2362;SDS011;64265;51.664;7.626;2024-02-04T05:23:49;2.75;;;2.10;;
2362;SDS011;64265;51.664;7.626;2024-02-04T05:26:17;2.50;;;1.80;;
2362;SDS011;64265;51.664;7.626;2024-02-04T05:28:44;2.20;;;2.00;;
2362;SDS011;64265;51.664;7.626;2024-02-04T05:31:11;2.30;;;2.10;;
2362;SDS011;64265;51.664;7.626;2024-02-04T05:33:38;2.05;;;1.85;;
2362;SDS011;64265;51.664;7.626;2024-02-04T05:36:06;2.00;;;1.80;;
2362;SDS011;64265;51.664;7.626;2024-02-04T05:38:33;2.30;;;2.10;;
2362;SDS011;64265;51.664;7.626;2024-02-04T05:41:00;2.05;;;1.65;;
2362;SDS011;64265;51.664;7.626;2024-02-04T05:43:26;1.80;;;1.70;;
2362;SDS011;64265;51.664;7.626;2024-02-04T05:45:53;2.17;;;1.98;;
2362;SDS011;64265;51.664;7.626;2024-02-04T05:48:20;1.60;;;1.50;;
2362;SDS011;64265;51.664;7.626;2024-02-04T05:50:47;2.60;;;2.40;;
2362;SDS011;64265;51.664;7.626;2024-02-04T05:53:15;2.22;;;1.90;;
2362;SDS011;64265;51.664;7.626;2024-02-04T05:55:41;3.17;;;1.90;;
2362;SDS011;64265;51.664;7.626;2024-02-04T05:58:08;1.98;;;1.88;;
2362;SDS011;64265;51.664;7.626;2024-02-04T06:00:35;2.40;;;2.05;;
2362;SDS011;64265;51.664;7.626;2024-02-04T06:03:02;2.20;;;2.10;;
2362;SDS011;64265;51.664;7.626;2024-02-04T06:05:29;3.65;;;2.40;;
2362;SDS011;64265;51.664;7.626;2024-02-04T06:07:56;2.88;;;2.15;;
2362;SDS011;64265;51.664;7.626;2024-02-04T06:10:24;1.55;;;1.45;;
2362;SDS011;64265;51.664;7.626;2024-02-04T06:12:51;2.00;;;1.80;;
2362;SDS011;64265;51.664;7.626;2024-02-04T06:15:18;2.30;;;1.97;;
2362;SDS011;64265;51.664;7.626;2024-02-04T06:17:46;2.30;;;1.70;;
2362;SDS011;64265;51.664;7.626;2024-02-04T06:20:12;2.00;;;1.67;;
2362;SDS011;64265;51.664;7.626;2024-02-04T06:22:38;2.17;;;1.97;;
2362;SDS011;64265;51.664;7.626;2024-02-04T06:25:05;2.75;;;2.03;;
2362;SDS011;64265;51.664;7.626;2024-02-04T06:27:34;3.00;;;2.17;;
2362;SDS011;64265;51.664;7.626;2024-02-04T06:30:01;2.10;;;1.88;;
2362;SDS011;64265;51.664;7.626;2024-02-04T06:32:28;1.70;;;1.55;;
2362;SDS011;64265;51.664;7.626;2024-02-04T06:34:54;1.98;;;1.77;;
2362;SDS011;64265;51.664;7.626;2024-02-04T06:37:21;2.60;;;2.40;;
2362;SDS011;64265;51.664;7.626;2024-02-04T06:39:48;1.75;;;1.48;;
2362;SDS011;64265;51.664;7.626;2024-02-04T06:42:15;1.92;;;1.65;;
2362;SDS011;64265;51.664;7.626;2024-02-04T06:44:43;1.85;;;1.75;;
2362;SDS011;64265;51.664;7.626;2024-02-04T06:47:10;2.00;;;1.63;;
2362;SDS011;64265;51.664;7.626;2024-02-04T06:49:38;3.75;;;1.67;;
2362;SDS011;64265;51.664;7.626;2024-02-04T06:52:05;2.35;;;1.65;;
2362;SDS011;64265;51.664;7.626;2024-02-04T06:54:32;2.60;;;1.70;;
2362;SDS011;64265;51.664;7.626;2024-02-04T06:56:59;1.83;;;1.73;;
2362;SDS011;64265;51.664;7.626;2024-02-04T06:59:25;1.80;;;1.70;;
2362;SDS011;64265;51.664;7.626;2024-02-04T07:01:53;1.70;;;1.60;;
2362;SDS011;64265;51.664;7.626;2024-02-04T07:04:20;1.60;;;1.50;;
2362;SDS011;64265;51.664;7.626;2024-02-04T07:06:49;2.45;;;2.15;;
2362;SDS011;64265;51.664;7.626;2024-02-04T07:09:16;1.92;;;1.77;;
2362;SDS011;64265;51.664;7.626;2024-02-04T07:11:43;1.67;;;1.58;;
2362;SDS011;64265;51.664;7.626;2024-02-04T07:14:10;2.17;;;1.98;;
2362;SDS011;64265;51.664;7.626;2024-02-04T07:16:37;1.80;;;1.70;;
2362;SDS011;64265;51.664;7.626;2024-02-04T07:19:05;2.70;;;2.00;;
2362;SDS011;64265;51.664;7.626;2024-02-04T07:21:32;2.03;;;1.90;;
2362;SDS011;64265;51.664;7.626;2024-02-04T07:23:59;1.60;;;1.50;;
2362;SDS011;64265;51.664;7.626;2024-02-04T07:26:25;2.10;;;1.55;;
2362;SDS011;64265;51.664;7.626;2024-02-04T07:28:52;1.70;;;1.60;;
2362;SDS011;64265;51.664;7.626;2024-02-04T07:31:19;1.90;;;1.77;;
2362;SDS011;64265;51.664;7.626;2024-02-04T07:33:47;2.00;;;1.80;;
2362;SDS011;64265;51.664;7.626;2024-02-04T07:36:16;2.03;;;1.83;;
2362;SDS011;64265;51.664;7.626;2024-02-04T07:38:42;1.60;;;1.50;;
2362;SDS011;64265;51.664;7.626;2024-02-04T07:41:09;1.85;;;1.67;;
2362;SDS011;64265;51.664;7.626;2024-02-04T07:43:39;1.95;;;1.45;;
2362;SDS011;64265;51.664;7.626;2024-02-04T07:46:05;1.90;;;1.75;;
2362;SDS011;64265;51.664;7.626;2024-02-04T07:48:34;1.48;;;1.35;;
2362;SDS011;64265;51.664;7.626;2024-02-04T07:51:01;1.77;;;1.65;;
2362;SDS011;64265;51.664;7.626;2024-02-04T07:53:29;6.22;;;1.45;;
2362;SDS011;64265;51.664;7.626;2024-02-04T07:55:56;7.28;;;2.20;;
2362;SDS011;64265;51.664;7.626;2024-02-04T07:58:23;2.20;;;1.98;;
2362;SDS011;64265;51.664;7.626;2024-02-04T08:00:51;1.60;;;1.50;;
2362;SDS011;64265;51.664;7.626;2024-02-04T08:03:17;2.27;;;1.83;;
2362;SDS011;64265;51.664;7.626;2024-02-04T08:05:44;1.85;;;1.20;;
2362;SDS011;64265;51.664;7.626;2024-02-04T08:08:11;16.13;;;2.20;;
2362;SDS011;64265;51.664;7.626;2024-02-04T08:10:39;4.35;;;1.70;;
2362;SDS011;64265;51.664;7.626;2024-02-04T08:13:06;2.10;;;1.60;;
2362;SDS011;64265;51.664;7.626;2024-02-04T08:15:33;1.80;;;1.20;;
2362;SDS011;64265;51.664;7.626;2024-02-04T08:18:00;2.10;;;1.45;;
2362;SDS011;64265;51.664;7.626;2024-02-04T08:20:27;2.03;;;1.70;;
2362;SDS011;64265;51.664;7.626;2024-02-04T08:22:54;1.40;;;1.30;;
2362;SDS011;64265;51.664;7.626;2024-02-04T08:25:21;1.75;;;1.27;;
2362;SDS011;64265;51.664;7.626;2024-02-04T08:27:49;1.85;;;1.55;;
2362;SDS011;64265;51.664;7.626;2024-02-04T08:30:16;1.40;;;1.30;;
2362;SDS011;64265;51.664;7.626;2024-02-04T08:32:44;1.53;;;1.33;;
2362;SDS011;64265;51.664;7.626;2024-02-04T08:35:10;1.30;;;1.20;;
2362;SDS011;64265;51.664;7.626;2024-02-04T08:37:37;1.90;;;1.70;;
2362;SDS011;64265;51.664;7.626;2024-02-04T08:40:05;1.52;;;1.40;;
2362;SDS011;64265;51.664;7.626;2024-02-04T08:42:32;2.65;;;1.60;;
2362;SDS011;64265;51.664;7.626;2024-02-04T08:45:00;2.43;;;1.30;;
2362;SDS011;64265;51.664;7.626;2024-02-04T08:47:27;2.08;;;1.65;;
2362;SDS011;64265;51.664;7.626;2024-02-04T08:49:54;1.73;;;1.60;;
2362;SDS011;64265;51.664;7.626;2024-02-04T08:52:21;1.70;;;1.25;;
2362;SDS011;64265;51.664;7.626;2024-02-04T08:54:47;1.73;;;1.60;;
2362;SDS011;64265;51.664;7.626;2024-02-04T08:57:14;1.60;;;1.38;;
2362;SDS011;64265;51.664;7.626;2024-02-04T08:59:41;2.50;;;1.37;;
2362;SDS011;64265;51.664;7.626;2024-02-04T09:02:09;1.67;;;1.52;;
2362;SDS011;64265;51.664;7.626;2024-02-04T09:04:36;1.60;;;1.30;;
2362;SDS011;64265;51.664;7.626;2024-02-04T09:07:05;1.40;;;1.30;;
2362;SDS011;64265;51.664;7.626;2024-02-04T09:09:32;1.75;;;1.40;;
2362;SDS011;64265;51.664;7.626;2024-02-04T09:11:59;1.20;;;1.00;;
2362;SDS011;64265;51.664;7.626;2024-02-04T09:14:27;1.90;;;1.30;;
2362;SDS011;64265;51.664;7.626;2024-02-04T09:16:53;1.30;;;1.20;;
2362;SDS011;64265;51.664;7.626;2024-02-04T09:19:21;1.47;;;1.23;;
2362;SDS011;64265;51.664;7.626;2024-02-04T09:21:49;1.60;;;1.30;;
2362;SDS011;64265;51.664;7.626;2024-02-04T09:24:16;2.00;;;1.43;;
2362;SDS011;64265;51.664;7.626;2024-02-04T09:26:42;1.40;;;1.30;;
2362;SDS011;64265;51.664;7.626;2024-02-04T09:29:09;1.50;;;1.20;;
2362;SDS011;64265;51.664;7.626;2024-02-04T09:31:36;1.30;;;1.13;;
2362;SDS011;64265;51.664;7.626;2024-02-04T09:34:02;1.97;;;1.20;;
2362;SDS011;64265;51.664;7.626;2024-02-04T09:36:31;2.95;;;1.10;;
2362;SDS011;64265;51.664;7.626;2024-02-04T09:38:58;1.63;;;1.40;;
2362;SDS011;64265;51.664;7.626;2024-02-04T09:41:25;1.38;;;1.00;;
2362;SDS011;64265;51.664;7.626;2024-02-04T09:43:52;1.63;;;1.00;;
2362;SDS011;64265;51.664;7.626;2024-02-04T09:46:19;1.60;;;1.30;;
2362;SDS011;64265;51.664;7.626;2024-02-04T09:48:46;2.45;;;1.50;;
2362;SDS011;64265;51.664;7.626;2024-02-04T09:51:15;2.15;;;1.80;;
2362;SDS011;64265;51.664;7.626;2024-02-04T09:53:44;2.95;;;1.85;;
2362;SDS011;64265;51.664;7.626;2024-02-04T09:56:12;10.85;;;1.77;;
2362;SDS011;64265;51.664;7.626;2024-02-04T09:58:40;1.43;;;1.20;;
2362;SDS011;64265;51.664;7.626;2024-02-04T10:01:07;1.60;;;1.30;;
2362;SDS011;64265;51.664;7.626;2024-02-04T10:03:36;1.90;;;1.50;;
2362;SDS011;64265;51.664;7.626;2024-02-04T10:06:03;1.48;;;1.20;;
2362;SDS011;64265;51.664;7.626;2024-02-04T10:08:31;2.03;;;1.83;;
2362;SDS011;64265;51.664;7.626;2024-02-04T10:10:59;5.93;;;1.50;;
2362;SDS011;64265;51.664;7.626;2024-02-04T10:13:41;3.47;;;1.80;;
2362;SDS011;64265;51.664;7.626;2024-02-04T10:16:10;1.52;;;1.42;;
2362;SDS011;64265;51.664;7.626;2024-02-04T10:18:37;4.13;;;1.50;;
2362;SDS011;64265;51.664;7.626;2024-02-04T10:21:14;1.55;;;1.13;;
2362;SDS011;64265;51.664;7.626;2024-02-04T10:23:41;5.60;;;1.57;;
2362;SDS011;64265;51.664;7.626;2024-02-04T10:26:09;1.40;;;1.20;;
2362;SDS011;64265;51.664;7.626;2024-02-04T10:28:36;1.63;;;1.20;;
2362;SDS011;64265;51.664;7.626;2024-02-04T10:31:04;2.17;;;1.20;;
2362;SDS011;64265;51.664;7.626;2024-02-04T10:33:31;1.20;;;1.10;;
2362;SDS011;64265;51.664;7.626;2024-02-04T10:35:58;2.97;;;1.47;;
2362;SDS011;64265;51.664;7.626;2024-02-04T10:38:24;3.47;;;1.47;;
2362;SDS011;64265;51.664;7.626;2024-02-04T10:40:52;7.17;;;1.67;;
2362;SDS011;64265;51.664;7.626;2024-02-04T10:43:22;2.75;;;1.67;;
2362;SDS011;64265;51.664;7.626;2024-02-04T10:45:50;9.20;;;1.30;;
2362;SDS011;64265;51.664;7.626;2024-02-04T10:48:19;2.23;;;1.30;;
2362;SDS011;64265;51.664;7.626;2024-02-04T10:50:48;1.57;;;1.40;;
2362;SDS011;64265;51.664;7.626;2024-02-04T10:53:17;2.87;;;1.30;;
2362;SDS011;64265;51.664;7.626;2024-02-04T10:55:47;1.50;;;1.20;;
2362;SDS011;64265;51.664;7.626;2024-02-04T10:58:16;4.60;;;1.33;;
2362;SDS011;64265;51.664;7.626;2024-02-04T11:00:45;3.57;;;1.60;;
2362;SDS011;64265;51.664;7.626;2024-02-04T11:03:12;1.73;;;1.33;;
2362;SDS011;64265;51.664;7.626;2024-02-04T11:05:41;1.10;;;1.00;;
2362;SDS011;64265;51.664;7.626;2024-02-04T11:08:09;2.00;;;1.70;;
2362;SDS011;64265;51.664;7.626;2024-02-04T11:10:37;2.63;;;1.20;;
2362;SDS011;64265;51.664;7.626;2024-02-04T11:13:05;1.20;;;1.00;;
2362;SDS011;64265;51.664;7.626;2024-02-04T11:15:35;2.03;;;1.10;;
2362;SDS011;64265;51.664;7.626;2024-02-04T11:18:14;1.83;;;1.10;;
2362;SDS011;64265;51.664;7.626;2024-02-04T11:21:12;1.50;;;1.10;;
2362;SDS011;64265;51.664;7.626;2024-02-04T11:23:54;3.00;;;1.13;;
2362;SDS011;64265;51.664;7.626;2024-02-04T11:26:36;1.77;;;1.20;;
2362;SDS011;64265;51.664;7.626;2024-02-04T11:29:06;1.23;;;1.07;;
2362;SDS011;64265;51.664;7.626;2024-02-04T11:31:32;4.47;;;1.37;;
2362;SDS011;64265;51.664;7.626;2024-02-04T11:34:01;1.30;;;0.93;;
2362;SDS011;64265;51.664;7.626;2024-02-04T11:36:28;1.53;;;1.03;;
2362;SDS011;64265;51.664;7.626;2024-02-04T11:38:55;3.00;;;1.53;;
2362;SDS011;64265;51.664;7.626;2024-02-04T11:41:25;2.50;;;1.30;;
2362;SDS011;64265;51.664;7.626;2024-02-04T11:44:09;1.10;;;1.00;;
2362;SDS011;64265;51.664;7.626;2024-02-04T11:46:48;3.83;;;1.20;;
2362;SDS011;64265;51.664;7.626;2024-02-04T11:49:27;2.03;;;1.33;;
2362;SDS011;64265;51.664;7.626;2024-02-04T11:52:03;2.40;;;1.30;;
2362;SDS011;64265;51.664;7.626;2024-02-04T11:54:32;1.70;;;1.03;;
2362;SDS011;64265;51.664;7.626;2024-02-04T11:57:07;1.80;;;1.20;;
2362;SDS011;64265;51.664;7.626;2024-02-04T11:59:37;2.40;;;0.90;;
2362;SDS011;64265;51.664;7.626;2024-02-04T12:02:10;1.57;;;1.00;;
2362;SDS011;64265;51.664;7.626;2024-02-04T12:04:51;1.10;;;0.90;;
2362;SDS011;64265;51.664;7.626;2024-02-04T12:07:25;2.07;;;1.20;;
2362;SDS011;64265;51.664;7.626;2024-02-04T12:10:01;2.40;;;1.30;;
2362;SDS011;64265;51.664;7.626;2024-02-04T12:12:30;1.73;;;1.17;;
2362;SDS011;64265;51.664;7.626;2024-02-04T12:15:03;1.57;;;1.20;;
2362;SDS011;64265;51.664;7.626;2024-02-04T12:17:36;3.43;;;1.20;;
2362;SDS011;64265;51.664;7.626;2024-02-04T12:20:07;1.27;;;0.90;;
2362;SDS011;64265;51.664;7.626;2024-02-04T12:22:42;1.40;;;1.30;;
2362;SDS011;64265;51.664;7.626;2024-02-04T12:25:22;2.20;;;1.00;;
2362;SDS011;64265;51.664;7.626;2024-02-04T12:27:52;3.30;;;1.50;;
2362;SDS011;64265;51.664;7.626;2024-02-04T12:30:25;1.50;;;1.20;;
2362;SDS011;64265;51.664;7.626;2024-02-04T12:32:55;1.70;;;1.00;;
2362;SDS011;64265;51.664;7.626;2024-02-04T12:35:30;1.40;;;1.00;;
2362;SDS011;64265;51.664;7.626;2024-02-04T12:38:03;2.63;;;1.37;;
2362;SDS011;64265;51.664;7.626;2024-02-04T12:40:32;1.77;;;1.10;;
2362;SDS011;64265;51.664;7.626;2024-02-04T12:43:12;1.60;;;1.13;;
2362;SDS011;64265;51.664;7.626;2024-02-04T12:45:39;1.30;;;1.20;;
2362;SDS011;64265;51.664;7.626;2024-02-04T12:48:09;1.87;;;1.00;;
2362;SDS011;64265;51.664;7.626;2024-02-04T12:50:52;1.70;;;0.90;;
2362;SDS011;64265;51.664;7.626;2024-02-04T12:53:28;2.27;;;1.00;;
2362;SDS011;64265;51.664;7.626;2024-02-04T12:56:00;1.30;;;1.10;;
2362;SDS011;64265;51.664;7.626;2024-02-04T12:58:41;2.00;;;1.10;;
2362;SDS011;64265;51.664;7.626;2024-02-04T13:01:24;1.80;;;1.10;;
2362;SDS011;64265;51.664;7.626;2024-02-04T13:03:57;2.27;;;1.10;;
2362;SDS011;64265;51.664;7.626;2024-02-04T13:06:25;1.40;;;1.07;;
2362;SDS011;64265;51.664;7.626;2024-02-04T13:08:54;2.10;;;1.23;;
2362;SDS011;64265;51.664;7.626;2024-02-04T13:11:28;2.27;;;0.93;;
2362;SDS011;64265;51.664;7.626;2024-02-04T13:14:03;1.10;;;0.90;;
2362;SDS011;64265;51.664;7.626;2024-02-04T13:16:32;2.73;;;1.20;;
2362;SDS011;64265;51.664;7.626;2024-02-04T13:19:04;1.30;;;1.00;;
2362;SDS011;64265;51.664;7.626;2024-02-04T13:21:36;1.47;;;0.90;;
2362;SDS011;64265;51.664;7.626;2024-02-04T13:24:05;8.17;;;1.30;;
2362;SDS011;64265;51.664;7.626;2024-02-04T13:26:32;2.83;;;1.30;;
2362;SDS011;64265;51.664;7.626;2024-02-04T13:29:03;1.40;;;1.10;;
2362;SDS011;64265;51.664;7.626;2024-02-04T13:31:34;1.50;;;1.10;;
2362;SDS011;64265;51.664;7.626;2024-02-04T13:34:06;1.50;;;1.10;;
2362;SDS011;64265;51.664;7.626;2024-02-04T13:36:40;1.80;;;1.10;;
2362;SDS011;64265;51.664;7.626;2024-02-04T13:39:15;1.17;;;1.00;;
2362;SDS011;64265;51.664;7.626;2024-02-04T13:41:44;2.43;;;1.27;;
2362;SDS011;64265;51.664;7.626;2024-02-04T13:44:19;1.73;;;1.27;;
2362;SDS011;64265;51.664;7.626;2024-02-04T13:46:51;2.07;;;1.00;;
2362;SDS011;64265;51.664;7.626;2024-02-04T13:49:40;1.40;;;1.07;;
2362;SDS011;64265;51.664;7.626;2024-02-04T13:52:16;2.23;;;1.00;;
2362;SDS011;64265;51.664;7.626;2024-02-04T13:54:46;1.67;;;1.30;;
2362;SDS011;64265;51.664;7.626;2024-02-04T13:57:25;2.20;;;1.13;;
2362;SDS011;64265;51.664;7.626;2024-02-04T13:59:53;1.20;;;1.00;;
2362;SDS011;64265;51.664;7.626;2024-02-04T14:02:23;1.73;;;1.13;;
2362;SDS011;64265;51.664;7.626;2024-02-04T14:04:57;1.40;;;1.07;;
2362;SDS011;64265;51.664;7.626;2024-02-04T14:07:25;2.40;;;1.07;;
2362;SDS011;64265;51.664;7.626;2024-02-04T14:09:54;1.10;;;0.80;;
2362;SDS011;64265;51.664;7.626;2024-02-04T14:12:29;1.83;;;1.40;;
2362;SDS011;64265;51.664;7.626;2024-02-04T14:14:56;2.03;;;1.63;;
2362;SDS011;64265;51.664;7.626;2024-02-04T14:17:25;1.60;;;1.10;;
2362;SDS011;64265;51.664;7.626;2024-02-04T14:19:56;1.20;;;0.90;;
2362;SDS011;64265;51.664;7.626;2024-02-04T14:22:55;1.47;;;1.33;;
2362;SDS011;64265;51.664;7.626;2024-02-04T14:25:35;1.70;;;1.13;;
2362;SDS011;64265;51.664;7.626;2024-02-04T14:28:07;1.53;;;0.97;;
2362;SDS011;64265;51.664;7.626;2024-02-04T14:30:53;1.30;;;0.97;;
2362;SDS011;64265;51.664;7.626;2024-02-04T14:33:25;1.63;;;1.10;;
2362;SDS011;64265;51.664;7.626;2024-02-04T14:35:55;1.50;;;1.10;;
2362;SDS011;64265;51.664;7.626;2024-02-04T14:38:26;2.13;;;0.80;;
2362;SDS011;64265;51.664;7.626;2024-02-04T14:40:55;1.67;;;1.00;;
2362;SDS011;64265;51.664;7.626;2024-02-04T14:43:50;1.37;;;1.00;;
2362;SDS011;64265;51.664;7.626;2024-02-04T14:46:17;1.33;;;1.00;;
2362;SDS011;64265;51.664;7.626;2024-02-04T14:48:53;1.83;;;1.20;;
2362;SDS011;64265;51.664;7.626;2024-02-04T14:51:25;3.57;;;1.50;;
2362;SDS011;64265;51.664;7.626;2024-02-04T14:54:01;1.50;;;1.00;;
2362;SDS011;64265;51.664;7.626;2024-02-04T14:56:36;1.23;;;0.90;;
2362;SDS011;64265;51.664;7.626;2024-02-04T14:59:14;1.30;;;1.10;;
2362;SDS011;64265;51.664;7.626;2024-02-04T15:01:49;1.67;;;1.17;;
2362;SDS011;64265;51.664;7.626;2024-02-04T15:04:26;2.23;;;1.10;;
2362;SDS011;64265;51.664;7.626;2024-02-04T15:06:57;1.47;;;1.27;;
2362;SDS011;64265;51.664;7.626;2024-02-04T15:09:33;1.13;;;0.93;;
2362;SDS011;64265;51.664;7.626;2024-02-04T15:12:05;1.23;;;1.10;;